createdAt,value
2019-03-18T00:01:59.219Z,11.9
2019-03-18T00:07:04.656Z,12.4
2019-03-18T00:12:09.805Z,13.2
2019-03-18T00:17:13.491Z,13.4
2019-03-18T00:22:18.594Z,12.2
2019-03-18T00:27:23.870Z,14.8
2019-03-18T00:32:29.041Z,16.2
2019-03-18T00:37:34.081Z,12.4
2019-03-18T00:42:39.341Z,11.7
2019-03-18T00:47:44.715Z,15.5
2019-03-18T00:52:50.074Z,11.3
2019-03-18T00:57:55.137Z,13.4
2019-03-18T01:03:00.828Z,13.5
2019-03-18T01:08:06.275Z,12.6
2019-03-18T01:13:11.922Z,14.2
2019-03-18T01:18:17.340Z,14.9
2019-03-18T01:23:22.730Z,14.5
2019-03-18T01:28:27.947Z,14.2
2019-03-18T01:33:33.281Z,13.5
2019-03-18T01:38:38.261Z,12.5
2019-03-18T01:43:43.472Z,15.6
2019-03-18T01:48:49.481Z,14.2
2019-03-18T01:53:55.048Z,13.4
2019-03-18T01:59:00.219Z,15.7
2019-03-18T02:04:05.596Z,24.5
2019-03-18T02:09:10.622Z,38.6
2019-03-18T02:14:15.901Z,17.4
2019-03-18T02:19:20.947Z,22.6
2019-03-18T02:24:24.868Z,22.2
2019-03-18T02:29:30.103Z,30.8
2019-03-18T02:34:35.492Z,26.6
2019-03-18T02:39:40.892Z,13.1
2019-03-18T02:44:46.210Z,12.2
2019-03-18T02:49:51.953Z,13.8
2019-03-18T02:54:58.775Z,11.6
2019-03-18T03:00:04.195Z,9.6
2019-03-18T03:05:09.750Z,11.3
2019-03-18T03:10:15.224Z,10.6
2019-03-18T03:15:20.566Z,6.2
2019-03-18T03:20:25.998Z,8.4
2019-03-18T03:25:31.501Z,3.5
2019-03-18T03:30:36.982Z,7.8
2019-03-18T03:35:42.184Z,7
2019-03-18T03:40:47.491Z,2.5
2019-03-18T03:45:52.734Z,7.3
2019-03-18T03:50:58.655Z,3
2019-03-18T03:56:04.057Z,2.6
2019-03-18T04:01:07.841Z,1.5
2019-03-18T04:06:13.320Z,3.3
2019-03-18T04:11:18.817Z,2.6
2019-03-18T04:16:24.244Z,3.7
2019-03-18T04:21:29.435Z,2.7
2019-03-18T04:26:34.833Z,4.9
2019-03-18T04:31:40.048Z,2.3
2019-03-18T04:36:45.793Z,4.4
2019-03-18T04:41:51.316Z,3.1
2019-03-18T04:46:56.494Z,2.9
2019-03-18T04:52:01.881Z,4
2019-03-18T04:57:07.616Z,4.5
2019-03-18T05:02:12.910Z,2.6
2019-03-18T05:07:22.520Z,4.9
2019-03-18T05:12:27.941Z,4
2019-03-18T05:17:33.292Z,6
2019-03-18T05:22:38.421Z,2.9
2019-03-18T05:27:46.452Z,3.1
2019-03-18T05:32:51.757Z,2.1
2019-03-18T05:37:56.900Z,3.9
2019-03-18T05:43:01.926Z,3.1
2019-03-18T05:48:07.211Z,2.6
2019-03-18T05:53:12.580Z,2.6
2019-03-18T05:58:17.961Z,5
2019-03-18T06:03:23.423Z,2.3
2019-03-18T06:08:28.762Z,4.4
2019-03-18T06:13:33.803Z,2.7
2019-03-18T06:18:37.613Z,6.6
2019-03-18T06:23:42.874Z,5.5
2019-03-18T06:28:48.178Z,2.1
2019-03-18T06:33:53.868Z,3.5
2019-03-18T06:38:59.019Z,8.1
2019-03-18T06:44:04.220Z,3.8
2019-03-18T06:49:09.576Z,4.4
2019-03-18T06:54:15.144Z,2.6
2019-03-18T06:59:20.830Z,4.4
2019-03-18T07:04:26.202Z,4.1
2019-03-18T07:09:31.294Z,5.2
2019-03-18T07:14:36.656Z,6.2
2019-03-18T07:19:41.804Z,8.6
2019-03-18T07:24:47.267Z,7.3
2019-03-18T07:29:52.493Z,7.4
2019-03-18T07:34:57.633Z,10.8
2019-03-18T07:40:03.427Z,9.3
2019-03-18T07:45:07.459Z,18.2
2019-03-18T07:50:12.903Z,20.2
2019-03-18T07:55:16.725Z,6.7
2019-03-18T08:00:22.326Z,4.9
2019-03-18T08:05:27.269Z,4.2
2019-03-18T08:10:31.804Z,10.7
2019-03-18T08:15:37.189Z,25.9
2019-03-18T08:20:42.402Z,6.9
2019-03-18T08:25:47.419Z,11.3
2019-03-18T08:30:51.494Z,8.4
2019-03-18T08:35:55.286Z,9
2019-03-18T08:40:59.773Z,8.8
2019-03-18T08:46:05.376Z,15.8
2019-03-18T08:51:10.467Z,13
2019-03-18T08:56:15.582Z,6.6
2019-03-18T09:01:20.660Z,5.1
2019-03-18T09:06:25.896Z,16.5
2019-03-18T09:11:34.512Z,9.6
2019-03-18T09:16:40.075Z,8.1
2019-03-18T09:21:45.169Z,6.1
2019-03-18T09:27:01.721Z,6.3
2019-03-18T09:31:57.797Z,8.6
2019-03-18T09:37:03.060Z,7.5
2019-03-18T09:42:07.088Z,7.8
2019-03-18T09:47:12.765Z,4
2019-03-18T09:52:17.915Z,4
2019-03-18T09:57:26.171Z,11.4
2019-03-18T10:02:21.893Z,10.9
2019-03-18T10:07:26.809Z,7.9
2019-03-18T10:12:32.016Z,14.5
2019-03-18T10:17:37.438Z,9.6
2019-03-18T10:22:42.615Z,8.8
2019-03-18T10:27:47.838Z,6.2
2019-03-18T10:32:53.140Z,9.5
2019-03-18T10:37:58.388Z,14.8
2019-03-18T10:43:02.232Z,10.7
2019-03-18T10:48:07.685Z,7.9
2019-03-18T10:53:12.830Z,21.1
2019-03-18T10:58:18.553Z,11
2019-03-18T11:03:24.668Z,9.6
2019-03-18T11:08:29.895Z,8.8
2019-03-18T11:13:35.320Z,8.7
2019-03-18T11:18:40.505Z,4.7
2019-03-18T11:23:46.028Z,5.8
2019-03-18T11:28:51.016Z,7.2
2019-03-18T11:33:56.843Z,8.7
2019-03-18T11:39:01.732Z,9
2019-03-18T11:44:06.942Z,8.4
2019-03-18T11:49:12.049Z,7.1
2019-03-18T11:54:17.286Z,11.5
2019-03-18T11:59:22.961Z,7.1
2019-03-18T12:04:28.265Z,9.8
2019-03-18T12:09:37.671Z,6.4
2019-03-18T12:14:43.012Z,5.5
2019-03-18T12:19:48.211Z,6.6
2019-03-18T12:24:53.559Z,4.1
2019-03-18T12:29:57.815Z,6.8
2019-03-18T12:35:03.388Z,19.4
2019-03-18T12:40:08.736Z,7.2
2019-03-18T12:45:13.926Z,14.8
2019-03-18T12:50:31.055Z,8.3
2019-03-18T12:55:20.679Z,9.2
2019-03-18T13:00:25.955Z,5.7
2019-03-18T13:05:32.483Z,7.4
2019-03-18T13:10:37.491Z,8.2
2019-03-18T13:15:43.174Z,8.6
2019-03-18T13:20:47.832Z,6.7
2019-03-18T13:25:53.324Z,4.1
2019-03-18T13:30:59.015Z,8.3
2019-03-18T13:36:02.945Z,7.9
2019-03-18T13:41:08.084Z,13.4
2019-03-18T13:46:14.326Z,11.2
2019-03-18T13:51:22.378Z,9.6
2019-03-18T13:56:26.559Z,3.9
2019-03-18T14:01:31.784Z,9.5
2019-03-18T14:06:37.192Z,6.8
2019-03-18T14:11:42.848Z,7.5
2019-03-18T14:16:48.004Z,4.9
2019-03-18T14:21:53.603Z,7.3
2019-03-18T14:26:58.722Z,4.4
2019-03-18T14:32:02.870Z,8
2019-03-18T14:37:08.506Z,18.1
2019-03-18T14:42:13.553Z,6.9
2019-03-18T14:47:19.065Z,7.5
2019-03-18T14:52:24.517Z,11.9
2019-03-18T14:57:29.887Z,5.5
2019-03-18T15:02:35.446Z,7.9
2019-03-18T15:07:41.011Z,6.3
2019-03-18T15:12:46.334Z,5.6
2019-03-18T15:17:51.778Z,7.9
2019-03-18T15:22:57.202Z,5.1
2019-03-18T15:28:02.654Z,5.3
2019-03-18T15:33:07.998Z,5.6
2019-03-18T15:38:13.457Z,4.5
2019-03-18T15:43:18.547Z,6.8
2019-03-18T15:48:24.040Z,12
2019-03-18T15:53:27.794Z,5.9
2019-03-18T15:58:33.293Z,20.9
2019-03-18T16:03:38.676Z,8.2
2019-03-18T16:08:44.170Z,11.4
2019-03-18T16:13:49.565Z,13.5
2019-03-18T16:18:54.909Z,6.5
2019-03-18T16:24:00.217Z,7.2
2019-03-18T16:29:06.054Z,11
2019-03-18T16:34:11.550Z,7.9
2019-03-18T16:39:17.253Z,7.7
2019-03-18T16:44:22.461Z,7.5
2019-03-18T16:49:28.265Z,4.9
2019-03-18T16:54:32.170Z,11.4
2019-03-18T16:59:37.790Z,9.3
2019-03-18T17:04:42.987Z,8.1
2019-03-18T17:09:51.662Z,8.4
2019-03-18T17:14:55.412Z,8.5
2019-03-18T17:20:05.092Z,11.1
2019-03-18T17:25:10.502Z,9.8
2019-03-18T17:30:15.919Z,16.6
2019-03-18T17:35:21.584Z,14.8
2019-03-18T17:40:27.019Z,12.1
2019-03-18T17:45:32.110Z,12.9
2019-03-18T17:50:36.293Z,12.8
2019-03-18T17:55:44.152Z,12
2019-03-18T18:00:49.442Z,11.3
2019-03-18T18:05:58.229Z,15.1
2019-03-18T18:11:03.410Z,16.2
2019-03-18T18:16:08.789Z,17.2
2019-03-18T18:21:13.999Z,14.5
2019-03-18T18:26:19.164Z,12
2019-03-18T18:31:24.822Z,12.5
2019-03-18T18:36:31.248Z,14.8
2019-03-18T18:41:36.506Z,26
2019-03-18T18:46:42.464Z,13
2019-03-18T18:51:48.327Z,10.4
2019-03-18T18:56:54.181Z,10.5
2019-03-18T19:01:59.729Z,14.4
2019-03-18T19:07:04.879Z,9
2019-03-18T19:12:10.886Z,21.2
2019-03-18T19:17:16.053Z,9.7
2019-03-18T19:22:21.541Z,8.9
2019-03-18T19:27:27.611Z,7.1
2019-03-18T19:32:31.916Z,12
2019-03-18T19:37:37.311Z,11.7
2019-03-18T19:42:42.633Z,7.8
2019-03-18T19:47:52.959Z,7.8
2019-03-18T19:52:58.638Z,9.1
2019-03-18T19:58:03.856Z,7.9
2019-03-18T20:03:09.392Z,9.3
2019-03-18T20:08:13.109Z,6
2019-03-18T20:13:20.062Z,5.5
2019-03-18T20:18:25.180Z,9.8
2019-03-18T20:23:30.440Z,4.1
2019-03-18T20:28:35.892Z,11.9
2019-03-18T20:33:41.271Z,5.6
2019-03-18T20:38:47.978Z,4.1
2019-03-18T20:43:53.455Z,4.6
2019-03-18T20:48:57.816Z,4.8
2019-03-18T20:54:11.549Z,6
2019-03-18T20:59:07.421Z,6.2
2019-03-18T21:04:12.552Z,5
2019-03-18T21:09:18.295Z,5.7
2019-03-18T21:19:23.738Z,6.7
2019-03-18T21:24:29.339Z,7.1
2019-03-18T21:29:34.964Z,6.5
2019-03-18T21:34:40.244Z,4
2019-03-18T21:39:45.552Z,5.8
2019-03-18T21:44:50.912Z,5.8
2019-03-18T21:49:56.185Z,5.5
2019-03-18T21:55:01.869Z,6
2019-03-18T22:00:06.930Z,5.7
2019-03-18T22:05:12.313Z,7.5
2019-03-18T22:10:17.720Z,8.1
2019-03-18T22:15:21.914Z,11.4
2019-03-18T22:20:27.231Z,9.3
2019-03-18T22:25:34.618Z,9.6
2019-03-18T22:35:45.871Z,10
2019-03-18T22:40:51.494Z,9.8
2019-03-18T22:45:56.636Z,12.2
2019-03-18T22:51:01.817Z,10.7
2019-03-18T22:56:06.389Z,11.4
2019-03-18T23:01:11.725Z,11.4
2019-03-18T23:06:15.587Z,11.8
2019-03-18T23:11:21.026Z,10.3
2019-03-18T23:16:26.268Z,10.6
2019-03-18T23:21:31.810Z,10.3
2019-03-18T23:26:37.130Z,10.2
2019-03-18T23:31:42.326Z,8.6
2019-03-18T23:36:47.722Z,10.4
2019-03-18T23:41:52.971Z,12.5
2019-03-18T23:46:58.421Z,9.7
2019-03-18T23:52:03.640Z,10
2019-03-18T23:57:09.210Z,10.7
